Time;durP1;ratioP1;P1;durP2;ratioP2;P2;SDS_P1;SDS_P2;PMS_P1;PMS_P2;Temp;Humidity;BMP_temperature;BMP_pressure;BME280_temperature;BME280_humidity;BME280_pressure;Samples;Min_cycle;Max_cycle;Signal;HPM_P1;HPM_P2
2023/10/14 00:00:57;;;;;;;;;;;;;;;19.43;61.21;98156.31;10326948;28;873;-72
2023/10/14 00:05:53;;;;;;;;;;;;;;;19.44;61.31;98163.31;10326068;28;1917;-72
2023/10/14 00:10:49;;;;;;;;;;;;;;;19.43;61.29;98152.84;10325990;28;943;-72
2023/10/14 00:15:45;;;;;;;;;;;;;;;19.42;61.49;98144.09;10326105;28;802;-72
2023/10/14 00:20:42;;;;;;;;;;;;;;;19.41;61.30;98147.69;10326322;28;842;-72
2023/10/14 00:25:38;;;;;;;;;;;;;;;19.42;61.10;98152.00;10326177;28;1898;-72
2023/10/14 00:30:34;;;;;;;;;;;;;;;19.42;61.15;98145.88;10325539;28;920;-72
2023/10/14 00:35:30;;;;;;;;;;;;;;;19.41;61.04;98142.41;10326157;28;844;-72
2023/10/14 00:40:26;;;;;;;;;;;;;;;19.41;61.17;98155.63;10324982;28;931;-72
2023/10/14 00:45:22;;;;;;;;;;;;;;;19.41;61.22;98173.25;10325776;28;1952;-72
2023/10/14 00:55:24;;;;;;;;;;;;;;;19.38;61.15;98153.19;10325113;28;807;-72
2023/10/14 01:00:22;;;;;;;;;;;;;;;19.40;61.03;98163.66;10324997;28;798;-72
2023/10/14 01:05:20;;;;;;;;;;;;;;;19.41;61.20;98184.69;10325701;28;1909;-72
2023/10/14 01:10:24;;;;;;;;;;;;;;;19.40;61.30;98184.78;10324822;28;900;-72
2023/10/14 01:15:28;;;;;;;;;;;;;;;19.40;61.21;98182.97;10324729;28;869;-72
2023/10/14 01:25:24;;;;;;;;;;;;;;;19.39;61.32;98172.53;10325058;28;1968;-72
2023/10/14 01:30:25;;;;;;;;;;;;;;;19.38;61.34;98190.16;10324368;28;976;-72
2023/10/14 01:45:28;;;;;;;;;;;;;;;19.37;61.40;98185.03;10324423;28;1894;-72
2023/10/14 01:50:24;;;;;;;;;;;;;;;19.34;61.50;98199.31;10327918;28;1208;-72
2023/10/14 01:55:20;;;;;;;;;;;;;;;19.34;61.53;98209.88;10331246;28;904;-72
2023/10/14 02:00:25;;;;;;;;;;;;;;;19.36;61.37;98247.59;10330982;28;981;-72
2023/10/14 02:05:25;;;;;;;;;;;;;;;19.38;61.30;98295.84;10331403;28;1969;-72
2023/10/14 02:10:21;;;;;;;;;;;;;;;19.39;61.23;98304.66;10330991;28;841;-72
2023/10/14 02:15:17;;;;;;;;;;;;;;;19.40;61.30;98338.03;10330766;28;806;-72
2023/10/14 02:20:27;;;;;;;;;;;;;;;19.38;61.25;98351.34;10329760;28;1012;-72
2023/10/14 02:25:27;;;;;;;;;;;;;;;19.36;61.34;98369.13;10330091;28;1898;-72
2023/10/14 02:30:23;;;;;;;;;;;;;;;19.36;61.13;98377.06;10329891;28;858;-72
2023/10/14 02:35:18;;;;;;;;;;;;;;;19.36;61.06;98378.81;10329738;28;773;-72
2023/10/14 02:40:23;;;;;;;;;;;;;;;19.34;61.20;98392.16;10330168;28;930;-72
2023/10/14 02:45:19;;;;;;;;;;;;;;;19.35;61.21;98404.41;10330212;28;1898;-72
2023/10/14 02:50:22;;;;;;;;;;;;;;;19.34;61.16;98423.88;10328819;28;1259;-72
2023/10/14 02:55:21;;;;;;;;;;;;;;;19.34;61.19;98444.16;10329709;28;847;-72
2023/10/14 03:00:38;;;;;;;;;;;;;;;19.34;61.19;98458.22;10329074;28;872;-72
2023/10/14 03:05:33;;;;;;;;;;;;;;;19.34;61.28;98471.44;10327647;28;2057;-72
2023/10/14 03:10:34;;;;;;;;;;;;;;;19.34;61.23;98473.22;10328294;28;826;-72
2023/10/14 03:15:32;;;;;;;;;;;;;;;19.32;61.20;98499.75;10328471;28;830;-72
2023/10/14 03:25:23;;;;;;;;;;;;;;;19.33;61.23;98519.09;10327033;28;1894;-73
2023/10/14 03:30:20;;;;;;;;;;;;;;;19.32;61.32;98533.25;10328205;28;937;-72
2023/10/14 03:35:20;;;;;;;;;;;;;;;19.32;61.28;98533.25;10327383;28;893;-72
2023/10/14 03:45:29;;;;;;;;;;;;;;;19.31;61.23;98568.53;10326969;28;1902;-72
2023/10/14 03:50:25;;;;;;;;;;;;;;;19.31;61.29;98609.03;10326039;28;1177;-72
2023/10/14 03:55:26;;;;;;;;;;;;;;;19.27;61.15;98620.75;10326004;28;818;-72
2023/10/14 04:00:24;;;;;;;;;;;;;;;19.27;61.20;98652.44;10327575;28;913;-72
2023/10/14 04:05:20;;;;;;;;;;;;;;;19.26;61.25;98661.34;10326760;28;1972;-72
2023/10/14 04:10:22;;;;;;;;;;;;;;;19.24;61.27;98682.56;10327569;28;853;-72
2023/10/14 04:20:29;;;;;;;;;;;;;;;19.25;61.27;98725.66;10326429;28;883;-72
2023/10/14 04:25:39;;;;;;;;;;;;;;;19.21;61.23;98742.69;10326712;28;1893;-72
2023/10/14 04:30:44;;;;;;;;;;;;;;;19.27;61.03;98766.91;10325600;28;875;-72
2023/10/14 04:35:56;;;;;;;;;;;;;;;19.33;61.03;98770.09;10325534;28;850;-72
2023/10/14 04:40:58;;;;;;;;;;;;;;;19.36;60.77;98773.41;10325938;28;802;-72
2023/10/14 04:51:06;;;;;;;;;;;;;;;19.38;60.72;98800.53;10285021;28;967;-72
2023/10/14 04:56:02;;;;;;;;;;;;;;;19.40;60.63;98809.22;10284234;28;906;-72
2023/10/14 05:01:00;;;;;;;;;;;;;;;19.42;60.61;98806.50;10284245;28;877;-72
2023/10/14 05:05:56;;;;;;;;;;;;;;;19.44;60.37;98826.59;10284823;28;1910;-72
2023/10/14 05:10:52;;;;;;;;;;;;;;;19.46;60.56;98842.34;10283516;28;1035;-72
2023/10/14 05:15:53;;;;;;;;;;;;;;;19.47;60.48;98858.09;10283791;28;817;-73
2023/10/14 05:25:48;;;;;;;;;;;;;;;19.51;60.25;98877.25;10289887;28;1953;-73
2023/10/14 05:30:46;;;;;;;;;;;;;;;19.53;60.32;98893.88;10292070;28;981;-73
2023/10/14 05:35:42;;;;;;;;;;;;;;;19.58;60.21;98901.50;10291299;28;922;-73
2023/10/14 05:40:38;;;;;;;;;;;;;;;19.58;60.24;98907.63;10291692;28;850;-73
2023/10/14 05:45:34;;;;;;;;;;;;;;;19.57;60.22;98915.66;10288176;28;1898;-73
2023/10/14 05:50:30;;;;;;;;;;;;;;;19.58;60.25;98926.13;10326457;28;1454;-73
2023/10/14 05:55:29;;;;;;;;;;;;;;;19.60;60.12;98944.56;10331826;28;819;-73
2023/10/14 06:00:25;;;;;;;;;;;;;;;19.60;60.27;98947.22;10331626;28;813;-73
2023/10/14 06:05:21;;;;;;;;;;;;;;;19.60;60.21;98958.63;10331486;28;849;-73
2023/10/14 06:10:23;;;;;;;;;;;;;;;19.57;60.33;98971.16;10330710;28;779;-73
2023/10/14 06:15:19;;;;;;;;;;;;;;;19.56;60.21;98983.53;10331503;28;895;-71
2023/10/14 06:20:16;;;;;;;;;;;;;;;19.53;60.46;98982.91;10330919;28;814;-72
2023/10/14 06:25:15;;;;;;;;;;;;;;;19.53;60.07;98999.59;10330117;28;839;-71
2023/10/14 06:30:18;;;;;;;;;;;;;;;19.53;60.24;99009.31;10330444;28;1902;-72
2023/10/14 06:35:15;;;;;;;;;;;;;;;19.51;59.95;99019.13;10330171;28;846;-72
2023/10/14 06:40:14;;;;;;;;;;;;;;;19.48;59.91;99044.81;10329626;28;827;-71
2023/10/14 06:45:13;;;;;;;;;;;;;;;19.46;59.55;99046.69;10330087;28;881;-70
2023/10/14 06:50:12;;;;;;;;;;;;;;;19.45;59.29;99052.94;10328342;28;1893;-72
2023/10/14 06:55:08;;;;;;;;;;;;;;;19.44;58.81;99058.28;10329916;28;869;-71
2023/10/14 07:00:08;;;;;;;;;;;;;;;19.44;58.35;99067.09;10328847;28;890;-71
2023/10/14 07:05:04;;;;;;;;;;;;;;;19.45;58.78;99078.50;10329760;28;857;-71
2023/10/14 07:10:00;;;;;;;;;;;;;;;19.46;58.90;99085.50;10328306;28;1987;-71
2023/10/14 07:14:56;;;;;;;;;;;;;;;19.46;58.89;99099.56;10328853;28;1007;-71
2023/10/14 07:19:51;;;;;;;;;;;;;;;19.51;58.80;99109.00;10328027;28;894;-71
2023/10/14 07:24:47;;;;;;;;;;;;;;;19.51;58.85;99117.78;10327222;28;857;-73
2023/10/14 07:29:45;;;;;;;;;;;;;;;19.53;58.79;99131.75;10328124;28;1901;-73
2023/10/14 07:34:42;;;;;;;;;;;;;;;19.53;58.87;99137.03;10328060;28;857;-72
2023/10/14 07:39:38;;;;;;;;;;;;;;;19.55;58.68;99150.19;10327130;28;946;-72
2023/10/14 07:44:34;;;;;;;;;;;;;;;19.57;58.71;99150.91;10326950;28;845;-72
2023/10/14 07:49:30;;;;;;;;;;;;;;;19.59;58.73;99165.75;10326635;28;1971;-72
2023/10/14 07:54:26;;;;;;;;;;;;;;;19.60;58.61;99162.19;10327812;28;861;-72
2023/10/14 07:59:22;;;;;;;;;;;;;;;19.61;58.94;99170.97;10326474;28;938;-72
2023/10/14 08:04:18;;;;;;;;;;;;;;;19.60;58.91;99174.56;10326305;28;992;-72
2023/10/14 08:09:24;;;;;;;;;;;;;;;19.60;58.68;99178.03;10325545;28;1921;-72
2023/10/14 08:14:20;;;;;;;;;;;;;;;19.63;58.64;99184.94;10326737;28;782;-72
2023/10/14 08:19:16;;;;;;;;;;;;;;;19.65;58.62;99193.63;10325910;28;853;-72
2023/10/14 08:24:14;;;;;;;;;;;;;;;19.64;58.75;99195.41;10325892;28;791;-72
2023/10/14 08:29:12;;;;;;;;;;;;;;;19.66;58.81;99203.25;10326066;28;1922;-72
2023/10/14 08:34:08;;;;;;;;;;;;;;;19.66;58.85;99211.19;10326129;28;782;-72
2023/10/14 08:39:04;;;;;;;;;;;;;;;19.67;58.97;99218.19;10325457;28;873;-72
2023/10/14 08:44:00;;;;;;;;;;;;;;;19.67;58.87;99219.03;10326057;28;961;-72
2023/10/14 08:48:55;;;;;;;;;;;;;;;19.67;58.83;99229.63;10325452;28;1953;-72
2023/10/14 08:53:53;;;;;;;;;;;;;;;19.67;58.88;99226.13;10326426;28;915;-73
2023/10/14 08:58:49;;;;;;;;;;;;;;;19.67;58.89;99239.34;10328133;28;902;-72
2023/10/14 09:03:49;;;;;;;;;;;;;;;19.68;58.94;99251.66;10333495;28;856;-72
2023/10/14 09:08:45;;;;;;;;;;;;;;;19.70;58.87;99260.31;10333107;28;1918;-72
2023/10/14 09:13:41;;;;;;;;;;;;;;;19.70;58.88;99265.59;10333576;28;869;-72
2023/10/14 09:18:37;;;;;;;;;;;;;;;19.68;59.04;99270.16;10332783;28;870;-72
2023/10/14 09:23:33;;;;;;;;;;;;;;;19.66;58.97;99274.66;10332496;28;787;-72
2023/10/14 09:28:29;;;;;;;;;;;;;;;19.64;59.12;99285.31;10333049;28;1905;-73
2023/10/14 09:33:27;;;;;;;;;;;;;;;19.61;59.18;99293.41;10332181;28;810;-73
2023/10/14 09:38:23;;;;;;;;;;;;;;;19.60;59.19;99288.22;10331815;28;794;-73
2023/10/14 09:43:19;;;;;;;;;;;;;;;19.60;59.19;99296.16;10331056;28;1067;-72
2023/10/14 09:48:15;;;;;;;;;;;;;;;19.60;59.13;99304.09;10331580;28;1963;-73
2023/10/14 09:53:14;;;;;;;;;;;;;;;19.60;58.92;99306.75;10331110;28;839;-72
2023/10/14 09:58:10;;;;;;;;;;;;;;;19.59;58.85;99305.03;10331534;28;940;-72
2023/10/14 10:03:06;;;;;;;;;;;;;;;19.56;58.74;99313.97;10331384;28;933;-73
2023/10/14 10:08:02;;;;;;;;;;;;;;;19.54;58.83;99323.78;10330575;28;1975;-72
2023/10/14 10:12:58;;;;;;;;;;;;;;;19.54;58.82;99325.56;10330318;28;943;-73
2023/10/14 10:17:54;;;;;;;;;;;;;;;19.53;59.12;99332.66;10330872;28;795;-73
2023/10/14 10:22:50;;;;;;;;;;;;;;;19.49;58.67;99339.06;10330145;28;826;-74
2023/10/14 10:27:55;;;;;;;;;;;;;;;19.42;58.91;99337.72;10329403;28;1870;-83
2023/10/14 10:32:51;;;;;;;;;;;;;;;19.42;58.59;99343.00;10329900;28;886;-75
2023/10/14 10:37:47;;;;;;;;;;;;;;;19.39;58.76;99345.81;10329522;28;819;-72
2023/10/14 10:42:42;;;;;;;;;;;;;;;19.38;58.53;99350.22;10329996;28;809;-72
2023/10/14 10:47:38;;;;;;;;;;;;;;;19.33;58.78;99352.28;10329139;28;1966;-72
2023/10/14 10:52:36;;;;;;;;;;;;;;;19.29;58.64;99357.84;10328322;28;886;-72
2023/10/14 10:57:32;;;;;;;;;;;;;;;19.17;58.45;99346.16;10328737;28;822;-72
2023/10/14 11:02:29;;;;;;;;;;;;;;;19.12;58.51;99350.84;10328551;28;924;-72
2023/10/14 11:07:25;;;;;;;;;;;;;;;19.13;58.14;99347.28;10328462;28;1976;-74
2023/10/14 11:12:21;;;;;;;;;;;;;;;19.15;57.60;99345.38;10328792;28;916;-73
2023/10/14 11:17:17;;;;;;;;;;;;;;;19.22;57.86;99336.19;10328253;28;861;-72
2023/10/14 11:22:12;;;;;;;;;;;;;;;19.22;57.71;99334.38;10327675;28;758;-72
2023/10/14 11:27:08;;;;;;;;;;;;;;;19.23;58.14;99340.50;10327519;28;1890;-72
2023/10/14 11:32:05;;;;;;;;;;;;;;;19.22;58.18;99350.25;10327275;28;1417;-72
2023/10/14 11:37:01;;;;;;;;;;;;;;;19.20;58.28;99345.97;10327064;28;890;-73
2023/10/14 11:41:56;;;;;;;;;;;;;;;19.11;57.91;99349.13;10327682;28;843;-72
2023/10/14 11:46:52;;;;;;;;;;;;;;;19.06;58.55;99346.75;10327627;28;2201;-72
2023/10/14 11:51:48;;;;;;;;;;;;;;;19.09;58.11;99343.09;10326173;28;917;-72
2023/10/14 11:56:44;;;;;;;;;;;;;;;19.09;58.56;99343.94;10326673;28;875;-72
2023/10/14 12:01:45;;;;;;;;;;;;;;;19.09;58.77;99351.00;10326491;28;900;-72
2023/10/14 12:06:40;;;;;;;;;;;;;;;19.12;58.56;99353.47;10326785;28;1980;-72
2023/10/14 12:11:43;;;;;;;;;;;;;;;19.09;58.70;99353.66;10326832;28;791;-72
2023/10/14 12:16:40;;;;;;;;;;;;;;;19.18;58.76;99358.44;10325912;28;897;-72
2023/10/14 12:21:36;;;;;;;;;;;;;;;19.25;58.50;99354.50;10326655;28;844;-72
2023/10/14 12:26:33;;;;;;;;;;;;;;;19.21;58.62;99360.91;10326306;28;1957;-72
2023/10/14 12:31:31;;;;;;;;;;;;;;;19.27;58.34;99361.41;10325583;28;914;-72
2023/10/14 12:36:27;;;;;;;;;;;;;;;19.26;58.23;99361.50;10325077;28;914;-72
2023/10/14 12:41:24;;;;;;;;;;;;;;;19.21;58.38;99367.03;10325586;28;753;-72
2023/10/14 12:46:20;;;;;;;;;;;;;;;19.22;58.40;99360.81;10325473;28;1922;-71
2023/10/14 12:51:25;;;;;;;;;;;;;;;19.45;57.37;99378.03;10325328;28;826;-71
2023/10/14 12:56:21;;;;;;;;;;;;;;;19.57;57.12;99370.34;10325581;28;866;-72
2023/10/14 13:01:17;;;;;;;;;;;;;;;19.41;57.83;99379.16;10324853;28;869;-72
2023/10/14 13:06:13;;;;;;;;;;;;;;;19.56;57.63;99381.88;10324786;28;1972;-71
2023/10/14 13:11:14;;;;;;;;;;;;;;;19.62;57.54;99379.75;10324623;28;1005;-73
2023/10/14 13:16:10;;;;;;;;;;;;;;;19.78;57.26;99384.16;10324530;28;941;-71
2023/10/14 13:21:07;;;;;;;;;;;;;;;19.94;56.80;99382.34;10324522;28;992;-71
2023/10/14 13:26:04;;;;;;;;;;;;;;;20.05;56.43;99390.50;10324856;28;1976;-72
2023/10/14 13:31:00;;;;;;;;;;;;;;;20.20;56.14;99396.72;10324839;28;877;-73
2023/10/14 13:35:55;;;;;;;;;;;;;;;20.30;56.07;99395.22;10324113;28;904;-71
2023/10/14 13:40:53;;;;;;;;;;;;;;;20.42;55.42;99398.09;10324074;28;823;-71
2023/10/14 13:45:52;;;;;;;;;;;;;;;20.52;55.55;99396.59;10326476;28;1965;-71
2023/10/14 13:50:48;;;;;;;;;;;;;;;20.58;55.65;99397.09;10332179;28;1152;-71
2023/10/14 13:55:44;;;;;;;;;;;;;;;20.66;55.29;99403.72;10331743;28;996;-72
2023/10/14 14:00:40;;;;;;;;;;;;;;;20.76;55.28;99397.78;10331524;28;922;-71
2023/10/14 14:05:36;;;;;;;;;;;;;;;20.85;55.16;99400.78;10330897;28;775;-71
2023/10/14 14:10:32;;;;;;;;;;;;;;;20.88;54.98;99408.56;10330548;28;1910;-72
2023/10/14 14:15:28;;;;;;;;;;;;;;;20.92;54.78;99418.03;10330555;28;861;-72
2023/10/14 14:20:25;;;;;;;;;;;;;;;20.62;55.39;99418.97;10313525;28;711;-71
2023/10/14 14:25:21;;;;;;;;;;;;;;;20.37;55.87;99427.47;10330773;28;847;-72
2023/10/14 14:30:17;;;;;;;;;;;;;;;20.33;55.96;99432.09;10329903;28;1955;-71
2023/10/14 14:35:13;;;;;;;;;;;;;;;20.27;56.09;99439.53;10329776;28;802;-72
2023/10/14 14:40:13;;;;;;;;;;;;;;;20.24;56.18;99434.41;10328880;28;1183;-71
2023/10/14 14:45:10;;;;;;;;;;;;;;;20.26;56.30;99437.84;10329871;28;960;-71
2023/10/14 14:50:06;;;;;;;;;;;;;;;20.54;55.72;99452.97;10329927;28;1906;-71
2023/10/14 14:55:03;;;;;;;;;;;;;;;20.77;55.28;99452.44;10328435;28;922;-73
2023/10/14 14:59:59;;;;;;;;;;;;;;;20.84;55.02;99457.38;10328826;28;974;-72
2023/10/14 15:04:55;;;;;;;;;;;;;;;20.65;55.29;99462.94;10328563;28;778;-72
2023/10/14 15:09:51;;;;;;;;;;;;;;;20.53;55.67;99472.41;10328394;28;1934;-72
2023/10/14 15:14:47;;;;;;;;;;;;;;;20.29;56.41;99480.84;10329060;28;838;-72
2023/10/14 15:19:43;;;;;;;;;;;;;;;20.19;56.66;99471.72;10328768;28;795;-72
2023/10/14 15:24:39;;;;;;;;;;;;;;;20.18;56.75;99493.84;10327929;28;878;-72
2023/10/14 15:29:36;;;;;;;;;;;;;;;20.20;56.85;99504.34;10327599;28;1949;-72
2023/10/14 15:34:31;;;;;;;;;;;;;;;20.20;56.68;99497.28;10328075;28;873;-71
2023/10/14 15:39:30;;;;;;;;;;;;;;;20.11;56.98;99505.72;10327333;28;1083;-72
2023/10/14 15:44:26;;;;;;;;;;;;;;;20.07;56.95;99506.84;10327780;28;958;-72
2023/10/14 15:49:22;;;;;;;;;;;;;;;20.02;57.08;99509.75;10326524;28;1953;-72
2023/10/14 15:54:18;;;;;;;;;;;;;;;19.99;56.93;99515.22;10326974;28;904;-72
2023/10/14 15:59:14;;;;;;;;;;;;;;;19.93;57.19;99519.03;10325998;28;1013;-70
2023/10/14 16:04:11;;;;;;;;;;;;;;;19.88;57.19;99546.69;10326357;28;850;-70
2023/10/14 16:09:07;;;;;;;;;;;;;;;19.83;56.18;99548.72;10325521;28;1918;-70
2023/10/14 16:14:03;;;;;;;;;;;;;;;19.79;56.99;99563.94;10326315;28;913;-69
2023/10/14 16:19:00;;;;;;;;;;;;;;;19.81;55.78;99567.34;10326009;28;906;-69
2023/10/14 16:23:56;;;;;;;;;;;;;;;19.82;55.91;99563.75;10318187;28;876;-69
2023/10/14 16:28:53;;;;;;;;;;;;;;;19.82;56.01;99578.78;10326315;28;1976;-70
2023/10/14 16:33:50;;;;;;;;;;;;;;;19.83;55.97;99586.63;10325643;28;973;-72
2023/10/14 16:38:49;;;;;;;;;;;;;;;19.83;56.22;99589.28;10326139;28;909;-72
2023/10/14 16:43:45;;;;;;;;;;;;;;;19.83;56.49;99594.56;10326144;28;886;-71
2023/10/14 16:48:45;;;;;;;;;;;;;;;19.85;56.46;99597.97;10325079;28;1950;-72
2023/10/14 16:53:41;;;;;;;;;;;;;;;19.85;56.54;99613.84;10325792;28;889;-72
2023/10/14 16:58:36;;;;;;;;;;;;;;;19.85;56.58;99621.78;10325155;28;859;-72
2023/10/14 17:03:32;;;;;;;;;;;;;;;19.86;56.59;99636.72;10325645;28;842;-72
2023/10/14 17:08:31;;;;;;;;;;;;;;;19.85;56.74;99657.94;10325180;28;1913;-71
2023/10/14 17:13:26;;;;;;;;;;;;;;;19.88;56.68;99692.16;10325401;28;993;-72
2023/10/14 17:18:22;;;;;;;;;;;;;;;19.88;56.48;99702.75;10324831;28;811;-72
2023/10/14 17:23:18;;;;;;;;;;;;;;;19.83;56.65;99704.78;10332170;28;851;-71
2023/10/14 17:28:14;;;;;;;;;;;;;;;19.84;56.42;99717.09;10332760;28;1897;-71
2023/10/14 17:33:12;;;;;;;;;;;;;;;19.85;56.46;99698.47;10332986;28;833;-72
2023/10/14 17:38:08;;;;;;;;;;;;;;;19.85;56.57;99701.13;10332058;28;984;-72
2023/10/14 17:43:04;;;;;;;;;;;;;;;19.86;56.59;99705.50;10331853;28;857;-71
2023/10/14 17:48:00;;;;;;;;;;;;;;;19.87;56.72;99711.63;10331693;28;1894;-72
2023/10/14 17:52:56;;;;;;;;;;;;;;;19.88;56.47;99710.69;10331512;28;1067;-72
2023/10/14 17:57:52;;;;;;;;;;;;;;;19.89;56.50;99712.41;10332548;28;795;-72
2023/10/14 18:02:48;;;;;;;;;;;;;;;19.87;56.65;99719.56;10331568;28;862;-72
2023/10/14 18:07:43;;;;;;;;;;;;;;;19.85;56.67;99721.44;10331589;28;1968;-72
2023/10/14 18:12:40;;;;;;;;;;;;;;;19.85;56.74;99722.28;10331510;28;796;-72
2023/10/14 18:17:36;;;;;;;;;;;;;;;19.85;56.48;99722.28;10331293;28;910;-72
2023/10/14 18:22:32;;;;;;;;;;;;;;;19.87;56.54;99735.44;10330521;28;1111;-72
2023/10/14 18:27:27;;;;;;;;;;;;;;;19.87;56.67;99731.00;10329674;28;1898;-72
2023/10/14 18:32:23;;;;;;;;;;;;;;;19.85;56.81;99732.00;10329283;28;772;-71
2023/10/14 18:37:19;;;;;;;;;;;;;;;19.84;56.84;99749.69;10330085;28;818;-72
2023/10/14 18:42:15;;;;;;;;;;;;;;;19.84;56.64;99754.97;10329711;28;950;-71
2023/10/14 18:47:11;;;;;;;;;;;;;;;19.85;56.44;99755.81;10330116;28;1902;-72
2023/10/14 18:52:07;;;;;;;;;;;;;;;19.83;56.55;99755.91;10328783;28;1004;-72
2023/10/14 18:57:03;;;;;;;;;;;;;;;19.83;56.59;99762.97;10329975;28;875;-72
2023/10/14 19:01:59;;;;;;;;;;;;;;;19.83;56.49;99777.06;10329628;28;814;-72
2023/10/14 19:06:55;;;;;;;;;;;;;;;19.84;56.53;99772.63;10329284;28;1918;-72
2023/10/14 19:11:51;;;;;;;;;;;;;;;19.82;56.45;99775.34;10327961;28;898;-72
2023/10/14 19:16:47;;;;;;;;;;;;;;;19.84;56.58;99785.88;10328934;28;912;-72
2023/10/14 19:21:43;;;;;;;;;;;;;;;19.82;56.62;99793.00;10328161;28;881;-72
2023/10/14 19:26:39;;;;;;;;;;;;;;;19.82;56.66;99793.00;10327848;28;1902;-72
2023/10/14 19:31:35;;;;;;;;;;;;;;;19.84;56.51;99794.66;10329074;28;862;-71
2023/10/14 19:36:32;;;;;;;;;;;;;;;19.83;56.50;99800.88;10327565;28;787;-72
2023/10/14 19:41:28;;;;;;;;;;;;;;;19.82;56.59;99798.31;10327935;28;855;-72
2023/10/14 19:46:24;;;;;;;;;;;;;;;19.79;56.61;99799.31;10326535;28;1897;-72
2023/10/14 19:51:21;;;;;;;;;;;;;;;19.78;56.69;99802.91;10328188;28;901;-72
2023/10/14 19:56:17;;;;;;;;;;;;;;;19.73;56.97;99804.94;10327067;28;815;-73
2023/10/14 20:01:14;;;;;;;;;;;;;;;19.68;56.69;99813.09;10326634;28;898;-74
2023/10/14 20:06:11;;;;;;;;;;;;;;;19.67;56.68;99813.16;10325667;28;1981;-74
2023/10/14 20:11:08;;;;;;;;;;;;;;;19.65;56.49;99812.34;10326860;28;813;-73
2023/10/14 20:16:04;;;;;;;;;;;;;;;19.62;56.37;99812.47;10326156;28;838;-73
2023/10/14 20:21:03;;;;;;;;;;;;;;;19.60;56.27;99823.16;10325973;28;974;-73
2023/10/14 20:25:59;;;;;;;;;;;;;;;19.54;56.16;99825.22;10325766;28;1965;-73
2023/10/14 20:30:59;;;;;;;;;;;;;;;19.52;55.76;99821.81;10325776;28;982;-73
2023/10/14 20:35:55;;;;;;;;;;;;;;;19.51;56.59;99820.09;10317392;28;791;-73
2023/10/14 20:40:51;;;;;;;;;;;;;;;19.46;56.66;99826.47;10325477;28;886;-73
2023/10/14 20:45:47;;;;;;;;;;;;;;;19.45;56.14;99837.13;10325430;28;822;-73
2023/10/14 20:50:47;;;;;;;;;;;;;;;19.44;56.58;99840.69;10325875;28;1963;-74
2023/10/14 20:55:46;;;;;;;;;;;;;;;19.44;56.58;99836.28;10334266;28;790;-74
2023/10/14 21:00:42;;;;;;;;;;;;;;;19.34;56.46;99848.22;10338830;28;874;-74
2023/10/14 21:05:38;;;;;;;;;;;;;;;19.24;56.47;99855.72;10339175;28;887;-74
2023/10/14 21:10:35;;;;;;;;;;;;;;;19.19;56.75;99857.72;10338575;28;1914;-74
2023/10/14 21:15:31;;;;;;;;;;;;;;;19.16;56.49;99862.31;10339000;28;862;-73
2023/10/14 21:20:26;;;;;;;;;;;;;;;19.14;56.66;99858.88;10338353;28;813;-73
2023/10/14 21:25:23;;;;;;;;;;;;;;;19.11;57.08;99859.03;10338270;28;960;-73
2023/10/14 21:30:19;;;;;;;;;;;;;;;19.08;56.98;99857.38;10338046;28;1957;-74
2023/10/14 21:35:15;;;;;;;;;;;;;;;19.05;57.03;99866.31;10338930;28;922;-74
2023/10/14 21:40:19;;;;;;;;;;;;;;;19.03;57.14;99847.03;10337897;28;856;-74
2023/10/14 21:45:15;;;;;;;;;;;;;;;19.00;57.08;99851.59;10338544;28;1053;-73
2023/10/14 21:50:11;;;;;;;;;;;;;;;18.97;57.02;99844.69;10338010;28;1897;-74
2023/10/14 21:55:07;;;;;;;;;;;;;;;18.98;57.34;99848.16;10338279;28;884;-74
2023/10/14 22:00:18;;;;;;;;;;;;;;;18.96;57.49;99842.94;10337668;28;876;-74
2023/10/14 22:05:19;;;;;;;;;;;;;;;18.94;57.42;99842.19;10335474;28;806;-74
2023/10/14 22:10:15;;;;;;;;;;;;;;;18.90;57.10;99840.59;10330842;28;1914;-73
2023/10/14 22:15:15;;;;;;;;;;;;;;;18.87;57.34;99843.38;10330250;28;915;-73
2023/10/14 22:20:15;;;;;;;;;;;;;;;18.86;57.41;99839.00;10329989;28;981;-74
2023/10/14 22:25:11;;;;;;;;;;;;;;;18.84;57.34;99838.25;10330376;28;957;-73
2023/10/14 22:30:09;;;;;;;;;;;;;;;18.84;57.32;99832.97;10330177;28;1890;-73
2023/10/14 22:35:05;;;;;;;;;;;;;;;18.82;57.35;99840.94;10330171;28;843;-73
2023/10/14 22:40:03;;;;;;;;;;;;;;;18.81;57.41;99841.91;10330325;28;890;-73
2023/10/14 22:45:00;;;;;;;;;;;;;;;18.80;57.63;99832.25;10329800;28;806;-74
2023/10/14 22:49:56;;;;;;;;;;;;;;;18.78;57.64;99831.44;10329276;28;1894;-73
2023/10/14 22:54:52;;;;;;;;;;;;;;;18.76;57.50;99825.41;10329341;28;778;-74
2023/10/14 22:59:49;;;;;;;;;;;;;;;18.75;57.65;99825.47;10329704;28;857;-73
2023/10/14 23:04:44;;;;;;;;;;;;;;;18.77;57.39;99828.91;10328843;28;985;-73
2023/10/14 23:09:40;;;;;;;;;;;;;;;18.84;56.95;99830.34;10328191;28;1963;-73
2023/10/14 23:14:36;;;;;;;;;;;;;;;18.95;56.80;99832.47;10328534;28;822;-73
2023/10/14 23:19:32;;;;;;;;;;;;;;;18.96;57.02;99839.44;10327927;28;830;-73
2023/10/14 23:24:28;;;;;;;;;;;;;;;18.97;56.98;99835.91;10328114;28;817;-73
2023/10/14 23:29:24;;;;;;;;;;;;;;;18.97;57.04;99836.75;10327833;28;1960;-73
2023/10/14 23:34:20;;;;;;;;;;;;;;;18.99;56.99;99840.19;10327696;28;855;-73
2023/10/14 23:39:27;;;;;;;;;;;;;;;18.99;57.26;99840.19;10327765;28;869;-73
2023/10/14 23:44:23;;;;;;;;;;;;;;;19.00;57.16;99841.88;10327331;28;874;-73
2023/10/14 23:49:20;;;;;;;;;;;;;;;19.00;56.95;99843.69;10326848;28;1965;-73
2023/10/14 23:54:16;;;;;;;;;;;;;;;19.00;57.04;99843.69;10326862;28;1072;-73
2023/10/14 23:59:12;;;;;;;;;;;;;;;18.98;56.89;99850.81;10326195;28;841;-73
